sensor_id;sensor_type;location;lat;lon;timestamp;P1;durP1;ratioP1;P2;durP2;ratioP2
29196;SDS011;62796;42.654;23.316;2022-10-16T00:00:43;17.88;;;11.60;;
29196;SDS011;62796;42.654;23.316;2022-10-16T00:03:09;18.15;;;10.75;;
29196;SDS011;62796;42.654;23.316;2022-10-16T00:05:44;17.60;;;10.60;;
29196;SDS011;62796;42.654;23.316;2022-10-16T00:08:12;17.77;;;10.82;;
29196;SDS011;62796;42.654;23.316;2022-10-16T00:10:38;13.73;;;10.88;;
29196;SDS011;62796;42.654;23.316;2022-10-16T00:13:04;16.45;;;10.18;;
29196;SDS011;62796;42.654;23.316;2022-10-16T00:15:30;16.20;;;10.57;;
29196;SDS011;62796;42.654;23.316;2022-10-16T00:17:58;22.27;;;12.82;;
29196;SDS011;62796;42.654;23.316;2022-10-16T00:20:23;19.75;;;12.77;;
29196;SDS011;62796;42.654;23.316;2022-10-16T00:22:48;21.02;;;11.98;;
29196;SDS011;62796;42.654;23.316;2022-10-16T00:25:14;21.33;;;12.90;;
29196;SDS011;62796;42.654;23.316;2022-10-16T00:27:39;21.90;;;12.85;;
29196;SDS011;62796;42.654;23.316;2022-10-16T00:30:05;18.90;;;11.95;;
29196;SDS011;62796;42.654;23.316;2022-10-16T00:32:33;19.88;;;12.13;;
29196;SDS011;62796;42.654;23.316;2022-10-16T00:34:58;17.55;;;11.88;;
29196;SDS011;62796;42.654;23.316;2022-10-16T00:37:23;17.38;;;10.25;;
29196;SDS011;62796;42.654;23.316;2022-10-16T00:39:49;16.25;;;11.02;;
29196;SDS011;62796;42.654;23.316;2022-10-16T00:42:15;15.90;;;10.55;;
29196;SDS011;62796;42.654;23.316;2022-10-16T00:47:13;20.13;;;14.38;;
29196;SDS011;62796;42.654;23.316;2022-10-16T00:49:43;22.85;;;16.27;;
29196;SDS011;62796;42.654;23.316;2022-10-16T00:52:09;21.05;;;13.07;;
29196;SDS011;62796;42.654;23.316;2022-10-16T00:54:35;19.73;;;12.57;;
29196;SDS011;62796;42.654;23.316;2022-10-16T00:57:02;19.70;;;11.15;;
29196;SDS011;62796;42.654;23.316;2022-10-16T00:59:32;14.27;;;10.73;;
29196;SDS011;62796;42.654;23.316;2022-10-16T01:01:59;18.42;;;11.73;;
29196;SDS011;62796;42.654;23.316;2022-10-16T01:04:25;17.83;;;11.10;;
29196;SDS011;62796;42.654;23.316;2022-10-16T01:14:48;16.40;;;10.57;;
29196;SDS011;62796;42.654;23.316;2022-10-16T01:19:53;18.27;;;10.55;;
29196;SDS011;62796;42.654;23.316;2022-10-16T01:22:38;18.73;;;10.30;;
29196;SDS011;62796;42.654;23.316;2022-10-16T01:25:16;14.63;;;10.13;;
29196;SDS011;62796;42.654;23.316;2022-10-16T01:27:50;13.35;;;9.35;;
29196;SDS011;62796;42.654;23.316;2022-10-16T01:30:18;12.32;;;9.18;;
29196;SDS011;62796;42.654;23.316;2022-10-16T01:32:50;16.45;;;10.13;;
29196;SDS011;62796;42.654;23.316;2022-10-16T01:35:37;17.42;;;9.93;;
29196;SDS011;62796;42.654;23.316;2022-10-16T01:38:10;14.43;;;10.18;;
29196;SDS011;62796;42.654;23.316;2022-10-16T01:40:41;13.40;;;9.75;;
29196;SDS011;62796;42.654;23.316;2022-10-16T01:43:12;13.35;;;9.60;;
29196;SDS011;62796;42.654;23.316;2022-10-16T01:45:42;15.05;;;8.30;;
29196;SDS011;62796;42.654;23.316;2022-10-16T01:48:09;13.70;;;8.25;;
29196;SDS011;62796;42.654;23.316;2022-10-16T01:50:38;11.55;;;8.85;;
29196;SDS011;62796;42.654;23.316;2022-10-16T01:53:06;12.65;;;8.43;;
29196;SDS011;62796;42.654;23.316;2022-10-16T01:55:36;13.50;;;8.65;;
29196;SDS011;62796;42.654;23.316;2022-10-16T01:58:08;14.02;;;9.15;;
29196;SDS011;62796;42.654;23.316;2022-10-16T02:00:36;12.68;;;9.00;;
29196;SDS011;62796;42.654;23.316;2022-10-16T02:03:04;12.95;;;9.20;;
29196;SDS011;62796;42.654;23.316;2022-10-16T02:05:33;12.43;;;8.93;;
29196;SDS011;62796;42.654;23.316;2022-10-16T02:08:03;15.52;;;10.05;;
29196;SDS011;62796;42.654;23.316;2022-10-16T02:10:29;18.30;;;10.85;;
29196;SDS011;62796;42.654;23.316;2022-10-16T02:12:59;22.52;;;11.00;;
29196;SDS011;62796;42.654;23.316;2022-10-16T02:15:28;16.52;;;10.30;;
29196;SDS011;62796;42.654;23.316;2022-10-16T02:17:53;15.75;;;10.27;;
29196;SDS011;62796;42.654;23.316;2022-10-16T02:20:20;16.08;;;10.45;;
29196;SDS011;62796;42.654;23.316;2022-10-16T02:22:52;18.80;;;11.55;;
29196;SDS011;62796;42.654;23.316;2022-10-16T02:25:24;14.27;;;10.07;;
29196;SDS011;62796;42.654;23.316;2022-10-16T02:27:55;13.85;;;9.93;;
29196;SDS011;62796;42.654;23.316;2022-10-16T02:32:52;15.48;;;8.93;;
29196;SDS011;62796;42.654;23.316;2022-10-16T02:35:20;12.40;;;8.77;;
29196;SDS011;62796;42.654;23.316;2022-10-16T02:37:47;16.17;;;9.20;;
29196;SDS011;62796;42.654;23.316;2022-10-16T02:40:14;10.30;;;8.60;;
29196;SDS011;62796;42.654;23.316;2022-10-16T02:42:41;13.85;;;8.95;;
29196;SDS011;62796;42.654;23.316;2022-10-16T02:45:08;15.48;;;8.95;;
29196;SDS011;62796;42.654;23.316;2022-10-16T02:47:34;14.43;;;9.15;;
29196;SDS011;62796;42.654;23.316;2022-10-16T02:50:00;16.52;;;9.00;;
29196;SDS011;62796;42.654;23.316;2022-10-16T02:52:25;15.38;;;9.48;;
29196;SDS011;62796;42.654;23.316;2022-10-16T02:54:51;13.07;;;9.13;;
29196;SDS011;62796;42.654;23.316;2022-10-16T02:57:17;13.32;;;8.93;;
29196;SDS011;62796;42.654;23.316;2022-10-16T02:59:43;12.70;;;8.85;;
29196;SDS011;62796;42.654;23.316;2022-10-16T03:02:09;15.10;;;9.13;;
29196;SDS011;62796;42.654;23.316;2022-10-16T03:04:34;13.73;;;8.40;;
29196;SDS011;62796;42.654;23.316;2022-10-16T03:07:00;15.23;;;9.00;;
29196;SDS011;62796;42.654;23.316;2022-10-16T03:09:25;14.75;;;9.65;;
29196;SDS011;62796;42.654;23.316;2022-10-16T03:11:51;16.17;;;10.38;;
29196;SDS011;62796;42.654;23.316;2022-10-16T03:14:17;16.15;;;9.23;;
29196;SDS011;62796;42.654;23.316;2022-10-16T03:16:42;15.88;;;11.50;;
29196;SDS011;62796;42.654;23.316;2022-10-16T03:19:08;17.45;;;11.50;;
29196;SDS011;62796;42.654;23.316;2022-10-16T03:21:33;20.05;;;11.45;;
29196;SDS011;62796;42.654;23.316;2022-10-16T03:23:59;19.67;;;10.00;;
29196;SDS011;62796;42.654;23.316;2022-10-16T03:26:24;18.83;;;10.45;;
29196;SDS011;62796;42.654;23.316;2022-10-16T03:28:49;17.60;;;10.48;;
29196;SDS011;62796;42.654;23.316;2022-10-16T03:31:15;15.38;;;11.40;;
29196;SDS011;62796;42.654;23.316;2022-10-16T03:33:40;22.70;;;12.18;;
29196;SDS011;62796;42.654;23.316;2022-10-16T03:36:06;20.27;;;11.27;;
29196;SDS011;62796;42.654;23.316;2022-10-16T03:38:31;25.77;;;12.27;;
29196;SDS011;62796;42.654;23.316;2022-10-16T03:40:57;18.42;;;11.15;;
29196;SDS011;62796;42.654;23.316;2022-10-16T03:43:22;19.98;;;12.38;;
29196;SDS011;62796;42.654;23.316;2022-10-16T03:45:49;19.50;;;12.20;;
29196;SDS011;62796;42.654;23.316;2022-10-16T03:48:16;15.77;;;11.57;;
29196;SDS011;62796;42.654;23.316;2022-10-16T03:50:42;17.42;;;10.95;;
29196;SDS011;62796;42.654;23.316;2022-10-16T03:53:07;19.42;;;11.35;;
29196;SDS011;62796;42.654;23.316;2022-10-16T03:55:33;17.70;;;11.00;;
29196;SDS011;62796;42.654;23.316;2022-10-16T03:57:59;14.50;;;10.80;;
29196;SDS011;62796;42.654;23.316;2022-10-16T04:00:24;16.52;;;10.98;;
29196;SDS011;62796;42.654;23.316;2022-10-16T04:02:50;19.83;;;11.55;;
29196;SDS011;62796;42.654;23.316;2022-10-16T04:05:15;14.45;;;11.05;;
29196;SDS011;62796;42.654;23.316;2022-10-16T04:07:41;15.43;;;11.02;;
29196;SDS011;62796;42.654;23.316;2022-10-16T04:10:06;16.65;;;10.85;;
29196;SDS011;62796;42.654;23.316;2022-10-16T04:12:32;18.27;;;11.18;;
29196;SDS011;62796;42.654;23.316;2022-10-16T04:14:57;14.50;;;10.80;;
29196;SDS011;62796;42.654;23.316;2022-10-16T04:17:23;20.40;;;11.30;;
29196;SDS011;62796;42.654;23.316;2022-10-16T04:19:48;20.35;;;12.38;;
29196;SDS011;62796;42.654;23.316;2022-10-16T04:22:13;26.13;;;12.25;;
29196;SDS011;62796;42.654;23.316;2022-10-16T04:24:39;28.48;;;12.27;;
29196;SDS011;62796;42.654;23.316;2022-10-16T04:27:05;27.08;;;13.00;;
29196;SDS011;62796;42.654;23.316;2022-10-16T04:29:30;22.48;;;13.98;;
29196;SDS011;62796;42.654;23.316;2022-10-16T04:31:55;27.25;;;13.55;;
29196;SDS011;62796;42.654;23.316;2022-10-16T04:34:21;19.98;;;12.13;;
29196;SDS011;62796;42.654;23.316;2022-10-16T04:36:47;17.05;;;12.52;;
29196;SDS011;62796;42.654;23.316;2022-10-16T04:39:14;17.90;;;12.30;;
29196;SDS011;62796;42.654;23.316;2022-10-16T04:41:39;17.52;;;12.15;;
29196;SDS011;62796;42.654;23.316;2022-10-16T04:44:05;22.67;;;12.43;;
29196;SDS011;62796;42.654;23.316;2022-10-16T04:46:30;19.80;;;12.20;;
29196;SDS011;62796;42.654;23.316;2022-10-16T04:48:56;21.17;;;12.02;;
29196;SDS011;62796;42.654;23.316;2022-10-16T04:51:21;19.45;;;13.27;;
29196;SDS011;62796;42.654;23.316;2022-10-16T04:53:46;20.70;;;12.85;;
29196;SDS011;62796;42.654;23.316;2022-10-16T04:56:12;23.75;;;13.23;;
29196;SDS011;62796;42.654;23.316;2022-10-16T04:58:37;21.88;;;14.13;;
29196;SDS011;62796;42.654;23.316;2022-10-16T05:01:02;24.55;;;14.57;;
29196;SDS011;62796;42.654;23.316;2022-10-16T05:03:28;27.25;;;16.15;;
29196;SDS011;62796;42.654;23.316;2022-10-16T05:05:53;30.55;;;15.23;;
29196;SDS011;62796;42.654;23.316;2022-10-16T05:08:19;30.20;;;16.10;;
29196;SDS011;62796;42.654;23.316;2022-10-16T05:10:44;30.17;;;17.08;;
29196;SDS011;62796;42.654;23.316;2022-10-16T05:13:10;29.48;;;17.67;;
29196;SDS011;62796;42.654;23.316;2022-10-16T05:15:36;40.40;;;17.80;;
29196;SDS011;62796;42.654;23.316;2022-10-16T05:18:01;41.15;;;18.10;;
29196;SDS011;62796;42.654;23.316;2022-10-16T05:20:27;39.85;;;19.58;;
29196;SDS011;62796;42.654;23.316;2022-10-16T05:22:53;42.22;;;18.85;;
29196;SDS011;62796;42.654;23.316;2022-10-16T05:25:18;44.53;;;19.58;;
29196;SDS011;62796;42.654;23.316;2022-10-16T05:27:47;42.35;;;18.20;;
29196;SDS011;62796;42.654;23.316;2022-10-16T05:30:13;29.55;;;16.52;;
29196;SDS011;62796;42.654;23.316;2022-10-16T05:32:38;27.25;;;14.80;;
29196;SDS011;62796;42.654;23.316;2022-10-16T05:35:04;23.42;;;15.27;;
29196;SDS011;62796;42.654;23.316;2022-10-16T05:37:29;26.80;;;18.02;;
29196;SDS011;62796;42.654;23.316;2022-10-16T05:39:55;24.10;;;16.35;;
29196;SDS011;62796;42.654;23.316;2022-10-16T05:42:20;16.98;;;13.48;;
29196;SDS011;62796;42.654;23.316;2022-10-16T05:44:46;18.38;;;13.02;;
29196;SDS011;62796;42.654;23.316;2022-10-16T05:47:14;19.88;;;13.10;;
29196;SDS011;62796;42.654;23.316;2022-10-16T05:49:40;20.33;;;15.20;;
29196;SDS011;62796;42.654;23.316;2022-10-16T05:52:05;21.27;;;12.93;;
29196;SDS011;62796;42.654;23.316;2022-10-16T05:54:31;19.30;;;13.23;;
29196;SDS011;62796;42.654;23.316;2022-10-16T05:56:56;18.85;;;12.40;;
29196;SDS011;62796;42.654;23.316;2022-10-16T05:59:22;17.80;;;11.18;;
29196;SDS011;62796;42.654;23.316;2022-10-16T06:01:47;17.35;;;11.70;;
29196;SDS011;62796;42.654;23.316;2022-10-16T06:04:12;16.58;;;11.48;;
29196;SDS011;62796;42.654;23.316;2022-10-16T06:06:38;16.83;;;10.43;;
29196;SDS011;62796;42.654;23.316;2022-10-16T06:09:03;15.90;;;12.02;;
29196;SDS011;62796;42.654;23.316;2022-10-16T06:11:31;20.55;;;11.70;;
29196;SDS011;62796;42.654;23.316;2022-10-16T06:13:58;13.85;;;10.65;;
29196;SDS011;62796;42.654;23.316;2022-10-16T06:16:26;16.98;;;10.63;;
29196;SDS011;62796;42.654;23.316;2022-10-16T06:18:52;14.00;;;10.70;;
29196;SDS011;62796;42.654;23.316;2022-10-16T06:21:28;17.25;;;12.70;;
29196;SDS011;62796;42.654;23.316;2022-10-16T06:23:54;18.75;;;12.02;;
29196;SDS011;62796;42.654;23.316;2022-10-16T06:26:22;19.65;;;11.10;;
29196;SDS011;62796;42.654;23.316;2022-10-16T06:28:49;17.80;;;12.35;;
29196;SDS011;62796;42.654;23.316;2022-10-16T06:31:15;19.92;;;12.13;;
29196;SDS011;62796;42.654;23.316;2022-10-16T06:33:42;17.58;;;12.38;;
29196;SDS011;62796;42.654;23.316;2022-10-16T06:36:08;15.55;;;10.45;;
29196;SDS011;62796;42.654;23.316;2022-10-16T06:38:36;14.43;;;9.77;;
29196;SDS011;62796;42.654;23.316;2022-10-16T06:41:02;13.18;;;9.50;;
29196;SDS011;62796;42.654;23.316;2022-10-16T06:43:29;12.68;;;9.60;;
29196;SDS011;62796;42.654;23.316;2022-10-16T06:46:00;13.45;;;9.13;;
29196;SDS011;62796;42.654;23.316;2022-10-16T06:48:26;12.63;;;9.32;;
29196;SDS011;62796;42.654;23.316;2022-10-16T06:51:11;17.30;;;9.20;;
29196;SDS011;62796;42.654;23.316;2022-10-16T06:53:39;12.23;;;8.95;;
29196;SDS011;62796;42.654;23.316;2022-10-16T06:56:10;13.95;;;8.23;;
29196;SDS011;62796;42.654;23.316;2022-10-16T06:58:37;16.48;;;8.15;;
29196;SDS011;62796;42.654;23.316;2022-10-16T07:01:03;14.00;;;8.50;;
29196;SDS011;62796;42.654;23.316;2022-10-16T07:03:30;12.45;;;7.90;;
29196;SDS011;62796;42.654;23.316;2022-10-16T07:05:56;8.82;;;7.28;;
29196;SDS011;62796;42.654;23.316;2022-10-16T07:08:21;11.15;;;8.18;;
29196;SDS011;62796;42.654;23.316;2022-10-16T07:10:47;9.02;;;7.28;;
29196;SDS011;62796;42.654;23.316;2022-10-16T07:13:12;9.38;;;6.95;;
29196;SDS011;62796;42.654;23.316;2022-10-16T07:15:39;9.02;;;7.43;;
29196;SDS011;62796;42.654;23.316;2022-10-16T07:18:05;9.43;;;6.55;;
29196;SDS011;62796;42.654;23.316;2022-10-16T07:20:30;7.80;;;6.80;;
29196;SDS011;62796;42.654;23.316;2022-10-16T07:22:56;10.32;;;7.78;;
29196;SDS011;62796;42.654;23.316;2022-10-16T07:25:21;9.07;;;6.85;;
29196;SDS011;62796;42.654;23.316;2022-10-16T07:27:46;10.52;;;6.82;;
29196;SDS011;62796;42.654;23.316;2022-10-16T07:30:12;12.25;;;7.57;;
29196;SDS011;62796;42.654;23.316;2022-10-16T07:32:37;8.48;;;6.47;;
29196;SDS011;62796;42.654;23.316;2022-10-16T07:35:03;10.57;;;6.85;;
29196;SDS011;62796;42.654;23.316;2022-10-16T07:37:29;11.05;;;6.80;;
29196;SDS011;62796;42.654;23.316;2022-10-16T07:39:54;10.52;;;6.80;;
29196;SDS011;62796;42.654;23.316;2022-10-16T07:42:20;11.88;;;7.07;;
29196;SDS011;62796;42.654;23.316;2022-10-16T07:44:45;7.70;;;6.40;;
29196;SDS011;62796;42.654;23.316;2022-10-16T07:47:11;10.80;;;7.10;;
29196;SDS011;62796;42.654;23.316;2022-10-16T07:49:36;8.43;;;7.47;;
29196;SDS011;62796;42.654;23.316;2022-10-16T07:52:01;9.88;;;7.40;;
29196;SDS011;62796;42.654;23.316;2022-10-16T07:54:27;11.77;;;8.43;;
29196;SDS011;62796;42.654;23.316;2022-10-16T07:56:52;10.75;;;8.95;;
29196;SDS011;62796;42.654;23.316;2022-10-16T07:59:18;17.65;;;10.52;;
29196;SDS011;62796;42.654;23.316;2022-10-16T08:01:43;14.52;;;10.25;;
29196;SDS011;62796;42.654;23.316;2022-10-16T08:04:09;18.85;;;9.95;;
29196;SDS011;62796;42.654;23.316;2022-10-16T08:06:37;23.00;;;13.52;;
29196;SDS011;62796;42.654;23.316;2022-10-16T08:09:04;17.30;;;10.13;;
29196;SDS011;62796;42.654;23.316;2022-10-16T08:11:30;10.77;;;9.68;;
29196;SDS011;62796;42.654;23.316;2022-10-16T08:13:55;13.35;;;8.32;;
29196;SDS011;62796;42.654;23.316;2022-10-16T08:16:21;11.38;;;9.35;;
29196;SDS011;62796;42.654;23.316;2022-10-16T08:18:46;15.68;;;8.80;;
29196;SDS011;62796;42.654;23.316;2022-10-16T08:21:13;14.07;;;9.38;;
29196;SDS011;62796;42.654;23.316;2022-10-16T08:23:40;19.17;;;10.95;;
29196;SDS011;62796;42.654;23.316;2022-10-16T08:26:06;17.58;;;8.52;;
29196;SDS011;62796;42.654;23.316;2022-10-16T08:28:33;11.95;;;8.50;;
29196;SDS011;62796;42.654;23.316;2022-10-16T08:31:13;11.80;;;8.00;;
29196;SDS011;62796;42.654;23.316;2022-10-16T08:33:41;14.30;;;8.20;;
29196;SDS011;62796;42.654;23.316;2022-10-16T08:36:08;9.02;;;7.13;;
29196;SDS011;62796;42.654;23.316;2022-10-16T08:38:35;13.15;;;7.65;;
29196;SDS011;62796;42.654;23.316;2022-10-16T08:41:10;11.95;;;7.40;;
29196;SDS011;62796;42.654;23.316;2022-10-16T08:49:09;13.73;;;7.55;;
29196;SDS011;62796;42.654;23.316;2022-10-16T08:51:38;10.93;;;6.50;;
29196;SDS011;62796;42.654;23.316;2022-10-16T08:54:05;8.00;;;6.10;;
29196;SDS011;62796;42.654;23.316;2022-10-16T08:56:48;11.15;;;6.20;;
29196;SDS011;62796;42.654;23.316;2022-10-16T08:59:13;8.35;;;5.95;;
29196;SDS011;62796;42.654;23.316;2022-10-16T09:01:44;9.15;;;5.35;;
29196;SDS011;62796;42.654;23.316;2022-10-16T09:06:46;5.97;;;4.97;;
29196;SDS011;62796;42.654;23.316;2022-10-16T09:09:24;6.90;;;4.28;;
29196;SDS011;62796;42.654;23.316;2022-10-16T09:19:49;8.75;;;4.53;;
29196;SDS011;62796;42.654;23.316;2022-10-16T09:22:19;6.90;;;3.95;;
29196;SDS011;62796;42.654;23.316;2022-10-16T09:24:51;7.65;;;3.88;;
29196;SDS011;62796;42.654;23.316;2022-10-16T09:27:16;7.18;;;4.20;;
29196;SDS011;62796;42.654;23.316;2022-10-16T09:29:42;5.75;;;4.00;;
29196;SDS011;62796;42.654;23.316;2022-10-16T09:32:10;5.20;;;3.60;;
29196;SDS011;62796;42.654;23.316;2022-10-16T09:34:41;4.70;;;3.78;;
29196;SDS011;62796;42.654;23.316;2022-10-16T09:37:12;6.07;;;3.90;;
29196;SDS011;62796;42.654;23.316;2022-10-16T09:39:46;5.65;;;3.72;;
29196;SDS011;62796;42.654;23.316;2022-10-16T09:42:17;5.90;;;3.85;;
29196;SDS011;62796;42.654;23.316;2022-10-16T09:44:49;5.88;;;4.00;;
29196;SDS011;62796;42.654;23.316;2022-10-16T09:47:19;8.00;;;3.90;;
29196;SDS011;62796;42.654;23.316;2022-10-16T09:49:54;7.30;;;4.07;;
29196;SDS011;62796;42.654;23.316;2022-10-16T09:52:27;5.57;;;3.95;;
29196;SDS011;62796;42.654;23.316;2022-10-16T09:55:01;5.65;;;3.95;;
29196;SDS011;62796;42.654;23.316;2022-10-16T09:57:48;6.75;;;3.55;;
29196;SDS011;62796;42.654;23.316;2022-10-16T10:00:15;7.03;;;3.83;;
29196;SDS011;62796;42.654;23.316;2022-10-16T10:02:42;7.00;;;3.63;;
29196;SDS011;62796;42.654;23.316;2022-10-16T10:05:20;5.13;;;3.83;;
29196;SDS011;62796;42.654;23.316;2022-10-16T10:07:59;7.15;;;5.00;;
29196;SDS011;62796;42.654;23.316;2022-10-16T10:10:32;6.90;;;4.72;;
29196;SDS011;62796;42.654;23.316;2022-10-16T10:12:59;7.95;;;4.95;;
29196;SDS011;62796;42.654;23.316;2022-10-16T10:15:25;8.32;;;4.35;;
29196;SDS011;62796;42.654;23.316;2022-10-16T10:17:57;4.80;;;3.90;;
29196;SDS011;62796;42.654;23.316;2022-10-16T10:20:30;6.07;;;3.70;;
29196;SDS011;62796;42.654;23.316;2022-10-16T10:22:59;6.13;;;3.75;;
29196;SDS011;62796;42.654;23.316;2022-10-16T10:25:28;4.05;;;3.65;;
29196;SDS011;62796;42.654;23.316;2022-10-16T10:41:28;20.77;;;17.60;;
29196;SDS011;62796;42.654;23.316;2022-10-16T10:50:25;5.03;;;3.40;;
29196;SDS011;62796;42.654;23.316;2022-10-16T10:53:04;5.43;;;3.45;;
29196;SDS011;62796;42.654;23.316;2022-10-16T11:04:36;5.55;;;4.03;;
29196;SDS011;62796;42.654;23.316;2022-10-16T11:07:26;6.60;;;3.20;;
29196;SDS011;62796;42.654;23.316;2022-10-16T11:12:30;4.75;;;3.28;;
29196;SDS011;62796;42.654;23.316;2022-10-16T11:15:19;5.20;;;3.10;;
29196;SDS011;62796;42.654;23.316;2022-10-16T11:17:57;3.70;;;3.28;;
29196;SDS011;62796;42.654;23.316;2022-10-16T11:20:45;4.75;;;3.25;;
29196;SDS011;62796;42.654;23.316;2022-10-16T11:23:22;5.45;;;3.05;;
29196;SDS011;62796;42.654;23.316;2022-10-16T11:25:51;4.75;;;3.17;;
29196;SDS011;62796;42.654;23.316;2022-10-16T11:30:51;3.58;;;2.90;;
29196;SDS011;62796;42.654;23.316;2022-10-16T11:33:27;3.83;;;2.53;;
29196;SDS011;62796;42.654;23.316;2022-10-16T11:39:15;12.07;;;9.07;;
29196;SDS011;62796;42.654;23.316;2022-10-16T11:41:50;3.30;;;2.53;;
29196;SDS011;62796;42.654;23.316;2022-10-16T11:49:30;5.00;;;2.92;;
29196;SDS011;62796;42.654;23.316;2022-10-16T11:57:29;3.28;;;2.40;;
29196;SDS011;62796;42.654;23.316;2022-10-16T12:00:24;3.95;;;2.30;;
29196;SDS011;62796;42.654;23.316;2022-10-16T12:08:28;3.50;;;2.75;;
29196;SDS011;62796;42.654;23.316;2022-10-16T12:10:53;3.50;;;2.28;;
29196;SDS011;62796;42.654;23.316;2022-10-16T12:16:04;2.40;;;2.03;;
29196;SDS011;62796;42.654;23.316;2022-10-16T12:18:42;3.00;;;2.53;;
29196;SDS011;62796;42.654;23.316;2022-10-16T12:21:09;3.13;;;2.53;;
29196;SDS011;62796;42.654;23.316;2022-10-16T12:24:00;4.82;;;2.95;;
29196;SDS011;62796;42.654;23.316;2022-10-16T12:26:32;5.55;;;2.70;;
29196;SDS011;62796;42.654;23.316;2022-10-16T12:29:11;6.35;;;2.95;;
29196;SDS011;62796;42.654;23.316;2022-10-16T12:36:54;3.53;;;2.95;;
29196;SDS011;62796;42.654;23.316;2022-10-16T12:39:32;5.15;;;2.15;;
29196;SDS011;62796;42.654;23.316;2022-10-16T12:42:04;5.45;;;2.60;;
29196;SDS011;62796;42.654;23.316;2022-10-16T12:44:47;3.92;;;2.80;;
29196;SDS011;62796;42.654;23.316;2022-10-16T12:47:20;5.53;;;2.85;;
29196;SDS011;62796;42.654;23.316;2022-10-16T12:50:01;3.42;;;2.58;;
29196;SDS011;62796;42.654;23.316;2022-10-16T12:55:04;4.53;;;3.05;;
29196;SDS011;62796;42.654;23.316;2022-10-16T12:57:34;4.78;;;2.88;;
29196;SDS011;62796;42.654;23.316;2022-10-16T13:00:04;5.45;;;2.90;;
29196;SDS011;62796;42.654;23.316;2022-10-16T13:05:45;3.92;;;2.90;;
29196;SDS011;62796;42.654;23.316;2022-10-16T13:21:45;3.15;;;2.50;;
29196;SDS011;62796;42.654;23.316;2022-10-16T13:29:30;4.70;;;2.67;;
29196;SDS011;62796;42.654;23.316;2022-10-16T13:31:58;3.70;;;3.13;;
29196;SDS011;62796;42.654;23.316;2022-10-16T13:34:25;6.13;;;3.60;;
29196;SDS011;62796;42.654;23.316;2022-10-16T13:36:52;7.53;;;3.92;;
29196;SDS011;62796;42.654;23.316;2022-10-16T13:39:26;4.40;;;2.67;;
29196;SDS011;62796;42.654;23.316;2022-10-16T13:44:23;5.28;;;3.00;;
29196;SDS011;62796;42.654;23.316;2022-10-16T13:46:58;4.38;;;3.97;;
29196;SDS011;62796;42.654;23.316;2022-10-16T13:49:25;8.57;;;3.10;;
29196;SDS011;62796;42.654;23.316;2022-10-16T13:52:00;5.80;;;3.33;;
29196;SDS011;62796;42.654;23.316;2022-10-16T13:54:26;3.13;;;2.70;;
29196;SDS011;62796;42.654;23.316;2022-10-16T13:56:53;2.65;;;2.40;;
29196;SDS011;62796;42.654;23.316;2022-10-16T14:01:54;6.97;;;2.85;;
29196;SDS011;62796;42.654;23.316;2022-10-16T14:04:22;5.97;;;4.18;;
29196;SDS011;62796;42.654;23.316;2022-10-16T14:06:49;5.68;;;3.72;;
29196;SDS011;62796;42.654;23.316;2022-10-16T14:12:12;3.28;;;2.55;;
29196;SDS011;62796;42.654;23.316;2022-10-16T14:14:48;5.35;;;3.10;;
29196;SDS011;62796;42.654;23.316;2022-10-16T14:17:18;5.72;;;3.30;;
29196;SDS011;62796;42.654;23.316;2022-10-16T14:19:56;4.60;;;2.80;;
29196;SDS011;62796;42.654;23.316;2022-10-16T14:24:54;5.15;;;2.85;;
29196;SDS011;62796;42.654;23.316;2022-10-16T14:27:33;6.65;;;2.55;;
29196;SDS011;62796;42.654;23.316;2022-10-16T14:30:17;5.30;;;2.67;;
29196;SDS011;62796;42.654;23.316;2022-10-16T14:33:01;6.15;;;2.58;;
29196;SDS011;62796;42.654;23.316;2022-10-16T14:35:30;3.85;;;2.60;;
29196;SDS011;62796;42.654;23.316;2022-10-16T14:38:02;3.20;;;2.85;;
29196;SDS011;62796;42.654;23.316;2022-10-16T14:40:30;6.47;;;3.25;;
29196;SDS011;62796;42.654;23.316;2022-10-16T14:43:01;6.07;;;3.17;;
29196;SDS011;62796;42.654;23.316;2022-10-16T14:45:30;5.60;;;3.33;;
29196;SDS011;62796;42.654;23.316;2022-10-16T14:47:58;5.43;;;3.08;;
29196;SDS011;62796;42.654;23.316;2022-10-16T14:50:26;4.05;;;3.63;;
29196;SDS011;62796;42.654;23.316;2022-10-16T14:52:52;5.82;;;2.72;;
29196;SDS011;62796;42.654;23.316;2022-10-16T14:55:18;6.05;;;3.70;;
29196;SDS011;62796;42.654;23.316;2022-10-16T14:57:44;5.97;;;4.50;;
29196;SDS011;62796;42.654;23.316;2022-10-16T15:00:20;6.75;;;3.80;;
29196;SDS011;62796;42.654;23.316;2022-10-16T15:02:48;6.57;;;4.05;;
29196;SDS011;62796;42.654;23.316;2022-10-16T15:05:21;5.72;;;3.80;;
29196;SDS011;62796;42.654;23.316;2022-10-16T15:07:49;7.95;;;3.55;;
29196;SDS011;62796;42.654;23.316;2022-10-16T15:10:16;9.70;;;3.30;;
29196;SDS011;62796;42.654;23.316;2022-10-16T15:12:43;10.07;;;5.30;;
29196;SDS011;62796;42.654;23.316;2022-10-16T15:17:40;10.65;;;6.68;;
29196;SDS011;62796;42.654;23.316;2022-10-16T15:20:05;7.93;;;4.95;;
29196;SDS011;62796;42.654;23.316;2022-10-16T15:22:31;5.65;;;4.05;;
29196;SDS011;62796;42.654;23.316;2022-10-16T15:24:56;6.07;;;3.80;;
29196;SDS011;62796;42.654;23.316;2022-10-16T15:27:22;4.05;;;3.63;;
29196;SDS011;62796;42.654;23.316;2022-10-16T15:29:47;5.22;;;3.80;;
29196;SDS011;62796;42.654;23.316;2022-10-16T15:32:13;5.20;;;4.05;;
29196;SDS011;62796;42.654;23.316;2022-10-16T15:34:38;6.63;;;3.80;;
29196;SDS011;62796;42.654;23.316;2022-10-16T15:37:03;6.53;;;3.35;;
29196;SDS011;62796;42.654;23.316;2022-10-16T15:39:29;7.78;;;4.10;;
29196;SDS011;62796;42.654;23.316;2022-10-16T15:41:54;10.05;;;3.83;;
29196;SDS011;62796;42.654;23.316;2022-10-16T15:44:20;7.93;;;3.95;;
29196;SDS011;62796;42.654;23.316;2022-10-16T15:46:48;8.88;;;5.57;;
29196;SDS011;62796;42.654;23.316;2022-10-16T15:49:13;15.13;;;5.95;;
29196;SDS011;62796;42.654;23.316;2022-10-16T15:51:39;9.65;;;4.35;;
29196;SDS011;62796;42.654;23.316;2022-10-16T15:54:06;10.15;;;4.32;;
29196;SDS011;62796;42.654;23.316;2022-10-16T15:56:32;7.13;;;4.80;;
29196;SDS011;62796;42.654;23.316;2022-10-16T15:59:01;12.27;;;5.93;;
29196;SDS011;62796;42.654;23.316;2022-10-16T16:01:26;17.83;;;8.88;;
29196;SDS011;62796;42.654;23.316;2022-10-16T16:03:53;15.80;;;6.63;;
29196;SDS011;62796;42.654;23.316;2022-10-16T16:06:19;11.52;;;5.88;;
29196;SDS011;62796;42.654;23.316;2022-10-16T16:08:45;20.48;;;8.18;;
29196;SDS011;62796;42.654;23.316;2022-10-16T16:11:12;14.30;;;8.88;;
29196;SDS011;62796;42.654;23.316;2022-10-16T16:13:41;9.88;;;5.80;;
29196;SDS011;62796;42.654;23.316;2022-10-16T16:16:07;11.60;;;7.32;;
29196;SDS011;62796;42.654;23.316;2022-10-16T16:18:34;9.63;;;6.25;;
29196;SDS011;62796;42.654;23.316;2022-10-16T16:20:59;15.35;;;11.40;;
29196;SDS011;62796;42.654;23.316;2022-10-16T16:23:25;26.27;;;13.43;;
29196;SDS011;62796;42.654;23.316;2022-10-16T16:28:54;21.13;;;10.23;;
29196;SDS011;62796;42.654;23.316;2022-10-16T16:31:23;15.82;;;9.13;;
29196;SDS011;62796;42.654;23.316;2022-10-16T16:33:50;15.65;;;8.68;;
29196;SDS011;62796;42.654;23.316;2022-10-16T16:36:16;16.55;;;8.55;;
29196;SDS011;62796;42.654;23.316;2022-10-16T16:38:43;20.42;;;8.65;;
29196;SDS011;62796;42.654;23.316;2022-10-16T16:41:13;22.05;;;9.70;;